Time;durP1;ratioP1;P1;durP2;ratioP2;P2;SDS_P1;SDS_P2;PMS_P1;PMS_P2;Temp;Humidity;BMP_temperature;BMP_pressure;BME280_temperature;BME280_humidity;BME280_pressure;Samples;Min_cycle;Max_cycle;Signal;HPM_P1;HPM_P2
2022/05/28 00:00:17;;;;;;;6.38;4.97;;;;;12.90;96513.00;;;;8452075;27;20273;-71
2022/05/28 00:04:20;;;;;;;8.15;5.38;;;;;13.00;96512.00;;;;8449994;28;20593;-71
2022/05/28 00:08:26;;;;;;;7.30;5.07;;;;;13.00;96519.00;;;;8451087;28;20224;-71
2022/05/28 00:12:31;;;;;;;8.52;5.30;;;;;13.00;96513.00;;;;8455633;28;20727;-72
2022/05/28 00:16:34;;;;;;;8.52;5.13;;;;;12.90;96512.00;;;;8453971;27;20233;-70
2022/05/28 00:20:38;;;;;;;8.02;5.00;;;;;12.90;96505.00;;;;8444641;28;20232;-70
2022/05/28 00:24:43;;;;;;;7.72;4.93;;;;;12.90;96503.00;;;;8452392;28;20693;-73
2022/05/28 00:28:46;;;;;;;7.43;4.68;;;;;12.80;96502.00;;;;8454376;27;20635;-70
2022/05/28 00:32:49;;;;;;;6.55;4.95;;;;;12.60;96497.00;;;;8453248;28;20232;-70
2022/05/28 00:36:53;;;;;;;7.38;5.15;;;;;12.50;96497.00;;;;8455929;27;20686;-71
2022/05/28 00:40:59;;;;;;;9.55;5.40;;;;;12.40;96492.00;;;;8446377;27;20302;-71
2022/05/28 00:45:02;;;;;;;11.48;4.70;;;;;12.30;96495.00;;;;8449341;28;20232;-71
2022/05/28 00:49:08;;;;;;;6.90;4.85;;;;;12.30;96480.00;;;;8456971;27;20904;-70
2022/05/28 00:53:11;;;;;;;9.98;4.80;;;;;12.20;96490.00;;;;8449502;27;20565;-72
2022/05/28 00:57:18;;;;;;;6.88;4.78;;;;;12.20;96478.00;;;;8443334;28;20746;-73
2022/05/28 01:01:23;;;;;;;8.90;4.88;;;;;12.10;96478.00;;;;8449331;28;20233;-71
2022/05/28 01:05:32;;;;;;;9.85;4.47;;;;;12.10;96485.00;;;;8451144;28;20234;-72
2022/05/28 01:09:44;;;;;;;13.35;4.75;;;;;12.10;96488.00;;;;8451077;28;20259;-71
2022/05/28 01:13:54;;;;;;;9.50;4.18;;;;;12.00;96484.00;;;;8451495;28;20226;-70
2022/05/28 01:18:08;;;;;;;15.50;4.03;;;;;11.90;96479.00;;;;8448242;28;20239;-73
2022/05/28 01:22:18;;;;;;;5.78;3.45;;;;;11.90;96485.00;;;;8430986;28;20790;-70
2022/05/28 01:26:27;;;;;;;8.48;3.55;;;;;11.90;96491.00;;;;8448400;28;20320;-72
2022/05/28 01:30:32;;;;;;;6.07;3.67;;;;;11.80;96491.00;;;;8450899;28;20239;-72
2022/05/28 01:34:36;;;;;;;7.15;3.80;;;;;11.80;96483.00;;;;8442924;28;20238;-72
2022/05/28 01:38:41;;;;;;;3.35;2.92;;;;;11.70;96477.00;;;;8441518;28;20241;-70
2022/05/28 01:42:47;;;;;;;12.15;4.15;;;;;11.60;96474.00;;;;8448082;28;20219;-73
2022/05/28 01:46:54;;;;;;;7.10;3.87;;;;;11.50;96476.00;;;;8447422;28;20234;-75
2022/05/28 01:50:59;;;;;;;9.52;3.70;;;;;11.40;96476.00;;;;8451805;27;20223;-71
2022/05/28 01:55:03;;;;;;;8.25;4.00;;;;;11.30;96473.00;;;;8434704;28;20236;-71
2022/05/28 01:59:06;;;;;;;10.20;3.97;;;;;11.20;96476.00;;;;8440800;28;20306;-72
2022/05/28 02:03:11;;;;;;;9.27;4.07;;;;;11.20;96467.00;;;;8446887;28;20226;-75
2022/05/28 02:07:15;;;;;;;12.82;4.05;;;;;11.10;96474.00;;;;8447484;27;20620;-71
2022/05/28 02:11:23;;;;;;;7.55;3.70;;;;;11.00;96475.00;;;;8447885;28;20218;-74
2022/05/28 02:15:37;;;;;;;10.02;3.70;;;;;10.80;96469.00;;;;8448559;28;20226;-73
2022/05/28 02:19:47;;;;;;;8.80;4.07;;;;;10.80;96471.00;;;;8443346;28;20227;-74
2022/05/28 02:23:54;;;;;;;7.80;4.10;;;;;10.60;96466.00;;;;8450439;28;20230;-73
2022/05/28 02:27:59;;;;;;;8.97;4.17;;;;;10.60;96460.00;;;;8450616;28;20242;-72
2022/05/28 02:32:14;;;;;;;9.50;4.13;;;;;10.40;96461.00;;;;8447637;27;20218;-72
2022/05/28 02:36:19;;;;;;;17.00;5.00;;;;;10.30;96454.00;;;;8442447;28;20237;-71
2022/05/28 02:40:22;;;;;;;10.02;4.55;;;;;10.20;96470.00;;;;8446481;28;20596;-74
2022/05/28 02:44:25;;;;;;;11.23;4.40;;;;;10.10;96476.00;;;;8415796;28;20242;-71
2022/05/28 02:48:28;;;;;;;10.27;4.30;;;;;10.10;96470.00;;;;8440449;28;20676;-74
2022/05/28 02:52:33;;;;;;;8.47;4.30;;;;;9.90;96465.00;;;;8447724;28;20222;-71
2022/05/28 02:56:36;;;;;;;5.03;4.00;;;;;9.90;96472.00;;;;8449748;28;20958;-74
2022/05/28 03:00:40;;;;;;;12.77;4.63;;;;;9.80;96489.00;;;;8476323;22;20288;-76
2022/05/28 03:04:43;;;;;;;9.50;4.13;;;;;9.70;96483.00;;;;8408645;22;20232;-72
2022/05/28 03:08:48;;;;;;;12.73;5.40;;;;;9.60;96471.00;;;;8407111;28;20314;-76
2022/05/28 03:12:51;;;;;;;11.13;5.37;;;;;9.60;96474.00;;;;8412639;28;20310;-73
2022/05/28 03:16:54;;;;;;;25.17;7.37;;;;;9.50;96471.00;;;;8405108;28;20698;-74
2022/05/28 03:20:58;;;;;;;17.70;6.37;;;;;9.50;96473.00;;;;8403983;28;20250;-72
2022/05/28 03:25:02;;;;;;;15.90;5.70;;;;;9.50;96467.00;;;;8419352;28;21060;-74
2022/05/28 03:29:07;;;;;;;19.30;4.80;;;;;9.40;96476.00;;;;8417371;28;20686;-73
2022/05/28 03:33:10;;;;;;;14.88;4.60;;;;;9.40;96472.00;;;;8421244;28;20241;-73
2022/05/28 03:37:13;;;;;;;12.50;4.63;;;;;9.40;96485.00;;;;8421917;28;20230;-74
2022/05/28 03:41:19;;;;;;;13.57;4.00;;;;;9.30;96485.00;;;;8424852;28;20225;-70
2022/05/28 03:45:23;;;;;;;6.90;3.60;;;;;9.30;96488.00;;;;8420091;28;20230;-73
2022/05/28 03:49:29;;;;;;;10.67;3.77;;;;;9.30;96490.00;;;;8426487;28;20231;-72
2022/05/28 03:53:32;;;;;;;12.17;4.13;;;;;9.30;96501.00;;;;8425597;28;20233;-75
2022/05/28 03:57:37;;;;;;;9.17;4.00;;;;;9.40;96503.00;;;;8427634;28;20262;-72
2022/05/28 04:01:40;;;;;;;7.63;3.57;;;;;9.50;96503.00;;;;8421992;28;20231;-78
2022/05/28 04:05:44;;;;;;;5.83;3.60;;;;;9.80;96514.00;;;;8411693;28;20310;-71
2022/05/28 04:09:47;;;;;;;10.30;3.70;;;;;10.00;96515.00;;;;8418838;28;20223;-74
2022/05/28 04:13:51;;;;;;;7.83;3.30;;;;;10.30;96520.00;;;;8416763;28;20865;-74
2022/05/28 04:17:55;;;;;;;9.60;3.40;;;;;10.70;96516.00;;;;8413399;28;20401;-73
2022/05/28 04:21:58;;;;;;;9.83;3.80;;;;;11.10;96523.00;;;;8399199;28;20224;-72
2022/05/28 04:26:01;;;;;;;9.17;3.13;;;;;11.50;96523.00;;;;8414565;28;20272;-71
2022/05/28 04:30:07;;;;;;;8.13;3.30;;;;;11.80;96532.00;;;;8420116;28;20303;-70
2022/05/28 04:34:10;;;;;;;11.23;3.47;;;;;12.10;96532.00;;;;8404208;28;20226;-71
2022/05/28 04:38:13;;;;;;;11.90;3.53;;;;;12.30;96537.00;;;;8409353;28;20310;-74
2022/05/28 04:42:16;;;;;;;7.18;3.38;;;;;12.40;96536.00;;;;8395478;28;20307;-72
2022/05/28 04:46:21;;;;;;;8.30;3.33;;;;;12.70;96538.00;;;;8415046;28;20242;-72
2022/05/28 04:50:25;;;;;;;11.80;3.83;;;;;12.90;96539.00;;;;8417569;28;20732;-71
2022/05/28 04:54:28;;;;;;;6.80;3.75;;;;;13.20;96543.00;;;;8416544;28;20315;-71
2022/05/28 04:58:31;;;;;;;12.20;3.85;;;;;13.40;96554.00;;;;8409261;28;20314;-71
2022/05/28 05:02:37;;;;;;;11.23;3.85;;;;;13.80;96546.00;;;;8413572;28;20427;-71
2022/05/28 05:06:40;;;;;;;11.00;4.05;;;;;14.20;96557.00;;;;8417147;28;20724;-76
2022/05/28 05:10:45;;;;;;;8.52;4.18;;;;;14.30;96560.00;;;;8416645;28;20228;-70
2022/05/28 05:14:49;;;;;;;10.02;4.50;;;;;14.10;96557.00;;;;8401381;28;20225;-73
2022/05/28 05:18:54;;;;;;;11.40;4.25;;;;;14.10;96562.00;;;;8408847;28;20235;-74
2022/05/28 05:22:57;;;;;;;8.30;4.05;;;;;14.20;96568.00;;;;8413558;28;20227;-69
2022/05/28 05:27:01;;;;;;;10.15;3.72;;;;;14.40;96575.00;;;;8413255;28;20250;-73
2022/05/28 05:31:04;;;;;;;12.77;3.60;;;;;14.50;96576.00;;;;8409368;28;20737;-69
2022/05/28 05:35:10;;;;;;;8.48;3.53;;;;;14.50;96576.00;;;;8415306;28;20224;-73
2022/05/28 05:39:13;;;;;;;9.55;3.97;;;;;14.60;96572.00;;;;8414439;28;20794;-70
2022/05/28 05:43:16;;;;;;;11.35;3.72;;;;;14.30;96577.00;;;;8387339;28;20237;-69
2022/05/28 05:47:20;;;;;;;8.10;3.42;;;;;14.20;96572.00;;;;8404794;28;20248;-69
2022/05/28 05:51:25;;;;;;;10.93;3.42;;;;;14.00;96567.00;;;;8409843;28;20761;-71
2022/05/28 05:55:32;;;;;;;9.23;3.25;;;;;14.10;96574.00;;;;8413650;28;20317;-71
2022/05/28 05:59:36;;;;;;;9.77;3.50;;;;;14.20;96574.00;;;;8406238;28;20226;-72
2022/05/28 06:03:44;;;;;;;6.03;2.67;;;;;14.40;96573.00;;;;8410275;28;20340;-70
2022/05/28 06:07:48;;;;;;;12.52;3.25;;;;;14.60;96567.00;;;;8409502;28;20785;-74
2022/05/28 06:11:52;;;;;;;16.55;3.33;;;;;14.80;96564.00;;;;8411116;28;20236;-73
2022/05/28 06:15:55;;;;;;;9.82;2.90;;;;;14.70;96565.00;;;;8409420;28;20225;-72
2022/05/28 06:19:59;;;;;;;9.57;3.15;;;;;14.80;96568.00;;;;8410696;28;20225;-71
2022/05/28 06:24:04;;;;;;;5.85;2.38;;;;;14.80;96567.00;;;;8403564;28;21113;-73
2022/05/28 06:28:07;;;;;;;8.80;2.78;;;;;15.10;96569.00;;;;8396357;28;20997;-74
2022/05/28 06:32:11;;;;;;;11.93;2.88;;;;;15.00;96569.00;;;;8412133;28;20248;-70
2022/05/28 06:36:14;;;;;;;16.20;2.60;;;;;14.60;96575.00;;;;8410211;28;20233;-82
2022/05/28 06:40:20;;;;;;;6.78;2.30;;;;;14.80;96569.00;;;;8407873;28;20654;-70
2022/05/28 06:44:23;;;;;;;8.52;2.72;;;;;15.40;96559.00;;;;8402129;28;25239;-67
2022/05/28 06:48:26;;;;;;;6.85;2.83;;;;;15.80;96576.00;;;;8398904;28;20235;-70
2022/05/28 06:52:29;;;;;;;11.50;2.67;;;;;16.10;96575.00;;;;8409223;28;20666;-67
2022/05/28 06:56:34;;;;;;;6.70;2.55;;;;;16.40;96578.00;;;;8410803;28;20330;-71
2022/05/28 07:00:37;;;;;;;8.50;2.60;;;;;16.60;96572.00;;;;8407851;28;20234;-68
2022/05/28 07:04:41;;;;;;;6.72;2.28;;;;;17.20;96568.00;;;;8410737;28;20235;-70
2022/05/28 07:08:45;;;;;;;5.00;2.05;;;;;17.50;96566.00;;;;8409612;28;20239;-68
2022/05/28 07:12:50;;;;;;;7.90;2.75;;;;;17.80;96566.00;;;;8399799;28;20227;-66
2022/05/28 07:16:53;;;;;;;9.15;2.35;;;;;17.50;96570.00;;;;8402029;28;20695;-69
2022/05/28 07:20:57;;;;;;;5.88;2.33;;;;;17.80;96563.00;;;;8407281;28;20254;-71
2022/05/28 07:25:00;;;;;;;8.57;2.40;;;;;18.00;96571.00;;;;8411002;28;20242;-68
2022/05/28 07:29:05;;;;;;;6.05;2.40;;;;;17.60;96578.00;;;;8409601;28;20239;-70
2022/05/28 07:33:08;;;;;;;9.05;1.92;;;;;17.80;96567.00;;;;8402594;28;20223;-67
2022/05/28 07:37:11;;;;;;;3.85;2.15;;;;;18.20;96576.00;;;;8410416;28;20226;-77
2022/05/28 07:41:17;;;;;;;6.15;1.77;;;;;18.00;96568.00;;;;8401245;28;20223;-72
2022/05/28 07:45:21;;;;;;;5.57;2.17;;;;;18.40;96568.00;;;;8399735;28;20310;-71
2022/05/28 07:49:25;;;;;;;5.13;1.95;;;;;18.30;96563.00;;;;8396706;28;20759;-71
2022/05/28 07:53:28;;;;;;;8.90;2.17;;;;;18.90;96567.00;;;;8403046;28;20227;-71
2022/05/28 07:57:31;;;;;;;8.02;2.53;;;;;18.00;96562.00;;;;8409401;28;20231;-71
2022/05/28 08:01:38;;;;;;;6.78;1.70;;;;;17.40;96561.00;;;;8407529;28;20235;-72
2022/05/28 08:05:44;;;;;;;4.85;1.85;;;;;18.80;96559.00;;;;8409766;28;20243;-71
2022/05/28 08:09:48;;;;;;;3.30;1.60;;;;;19.30;96566.00;;;;8409833;28;20255;-71
2022/05/28 08:13:52;;;;;;;4.60;1.63;;;;;18.30;96558.00;;;;8414571;28;20830;-68
2022/05/28 08:17:57;;;;;;;4.47;1.73;;;;;19.30;96549.00;;;;8416430;28;20223;-68
2022/05/28 08:26:21;;;;;;;2.60;1.50;;;;;18.90;96560.00;;;;8417432;28;20567;-70
2022/05/28 08:30:25;;;;;;;4.78;1.80;;;;;19.70;96564.00;;;;8414883;28;20275;-71
2022/05/28 08:34:29;;;;;;;6.13;1.80;;;;;20.90;96570.00;;;;8415203;28;20231;-66
2022/05/28 08:38:33;;;;;;;3.38;1.58;;;;;20.80;96561.00;;;;8415979;28;20298;-72
2022/05/28 08:42:36;;;;;;;6.90;1.52;;;;;19.50;96566.00;;;;8409621;28;20863;-69
2022/05/28 08:46:39;;;;;;;10.80;2.25;;;;;19.10;96566.00;;;;8407825;28;20242;-71
2022/05/28 08:50:49;;;;;;;3.80;1.52;;;;;19.30;96565.00;;;;8417162;28;20222;-69
2022/05/28 08:54:59;;;;;;;7.22;1.63;;;;;18.80;96556.00;;;;8425736;28;20230;-70
2022/05/28 08:59:07;;;;;;;2.47;1.70;;;;;18.70;96565.00;;;;8423543;28;20273;-68
2022/05/28 09:03:14;;;;;;;5.38;1.52;;;;;18.30;96562.00;;;;8414929;28;20326;-71
2022/05/28 09:07:19;;;;;;;4.55;1.27;;;;;18.10;96555.00;;;;8412291;28;20223;-70
2022/05/28 09:11:29;;;;;;;6.07;1.65;;;;;17.70;96562.00;;;;8415586;28;20211;-68
2022/05/28 09:15:34;;;;;;;4.72;1.38;;;;;17.90;96556.00;;;;8412842;28;20215;-69
2022/05/28 09:19:41;;;;;;;1.92;1.52;;;;;18.70;96560.00;;;;8415483;28;20322;-68
2022/05/28 09:23:51;;;;;;;2.20;1.40;;;;;19.70;96546.00;;;;8416505;28;20223;-70
2022/05/28 09:28:04;;;;;;;2.17;1.30;;;;;20.60;96545.00;;;;8408771;28;20241;-70
2022/05/28 09:32:14;;;;;;;1.02;1.00;;;;;20.10;96542.00;;;;8408822;28;20533;-72
2022/05/28 09:36:29;;;;;;;1.25;1.15;;;;;19.40;96531.00;;;;8427041;28;20230;-68
2022/05/28 09:40:39;;;;;;;2.65;1.30;;;;;19.10;96538.00;;;;8422069;28;20865;-68
2022/05/28 09:44:58;;;;;;;4.78;1.40;;;;;19.10;96545.00;;;;8427502;28;20225;-72
2022/05/28 09:49:13;;;;;;;3.20;1.85;;;;;18.50;96546.00;;;;8426210;28;20229;-69
2022/05/28 09:57:53;;;;;;;2.20;1.20;;;;;19.30;96525.00;;;;8430741;28;20226;-68
2022/05/28 10:01:59;;;;;;;2.58;1.52;;;;;21.20;96530.00;;;;8420330;28;20309;-70
2022/05/28 10:06:04;;;;;;;2.60;1.20;;;;;22.10;96509.00;;;;8429609;28;20225;-68
2022/05/28 10:10:17;;;;;;;5.93;1.58;;;;;21.10;96536.00;;;;8419973;28;20242;-74
2022/05/28 10:14:23;;;;;;;5.25;1.45;;;;;19.90;96528.00;;;;8418391;28;20227;-67
2022/05/28 10:18:34;;;;;;;5.50;1.40;;;;;18.60;96538.00;;;;8423607;28;20300;-69
2022/05/28 10:22:39;;;;;;;5.30;1.38;;;;;18.10;96539.00;;;;8399256;28;20306;-70
2022/05/28 10:26:47;;;;;;;4.43;1.60;;;;;17.90;96538.00;;;;8421984;28;20845;-70
2022/05/28 10:30:52;;;;;;;2.38;1.60;;;;;18.20;96535.00;;;;8422401;28;20255;-72
2022/05/28 10:35:13;;;;;;;5.15;1.52;;;;;18.60;96533.00;;;;8407715;28;20245;-68
2022/05/28 10:39:19;;;;;;;4.88;1.40;;;;;18.80;96517.00;;;;8414652;28;20308;-74
2022/05/28 10:43:28;;;;;;;2.85;1.30;;;;;18.90;96517.00;;;;8412402;28;20243;-71
2022/05/28 10:47:54;;;;;;;8.30;1.25;;;;;19.40;96524.00;;;;8415856;28;20587;-71
2022/05/28 10:52:06;;;;;;;3.88;1.70;;;;;19.50;96513.00;;;;8421584;28;20345;-69
2022/05/28 10:56:25;;;;;;;1.92;1.65;;;;;19.70;96521.00;;;;8411557;28;20659;-69
2022/05/28 11:00:35;;;;;;;1.42;1.27;;;;;20.60;96515.00;;;;8404064;28;20708;-70
2022/05/28 11:04:50;;;;;;;1.52;1.30;;;;;21.90;96507.00;;;;8415497;28;20572;-70
2022/05/28 11:09:02;;;;;;;3.92;1.35;;;;;22.10;96512.00;;;;8414966;28;20227;-72
2022/05/28 11:13:28;;;;;;;4.43;1.35;;;;;22.10;96504.00;;;;8414747;28;20230;-68
2022/05/28 11:17:49;;;;;;;2.92;1.33;;;;;21.80;96489.00;;;;8414652;28;20305;-69
2022/05/28 11:22:12;;;;;;;4.22;1.10;;;;;21.40;96492.00;;;;8408273;28;20237;-70
2022/05/28 11:26:24;;;;;;;2.72;1.42;;;;;21.10;96489.00;;;;8412142;28;20210;-69
2022/05/28 11:30:32;;;;;;;3.55;1.33;;;;;21.80;96490.00;;;;8392086;28;20238;-70
2022/05/28 11:34:41;;;;;;;5.00;1.42;;;;;22.10;96477.00;;;;8407181;28;20231;-72
2022/05/28 11:38:54;;;;;;;3.45;1.40;;;;;22.30;96471.00;;;;8392240;28;20305;-68
2022/05/28 11:43:03;;;;;;;3.83;1.40;;;;;22.30;96478.00;;;;8413344;28;20236;-67
2022/05/28 11:47:16;;;;;;;4.25;1.40;;;;;21.60;96476.00;;;;8407169;28;20219;-69
2022/05/28 11:51:29;;;;;;;3.15;1.50;;;;;21.20;96478.00;;;;8411869;28;20231;-67
2022/05/28 11:55:38;;;;;;;1.88;1.35;;;;;20.60;96472.00;;;;8417874;28;20301;-71
2022/05/28 11:59:44;;;;;;;1.58;1.25;;;;;20.60;96472.00;;;;8414670;28;20826;-68
2022/05/28 12:03:48;;;;;;;2.38;1.20;;;;;21.60;96465.00;;;;8416033;28;20327;-71
2022/05/28 12:07:59;;;;;;;5.22;1.45;;;;;22.70;96466.00;;;;8416865;28;21051;-68
2022/05/28 12:12:15;;;;;;;4.45;1.63;;;;;23.50;96461.00;;;;8420291;28;20247;-67
2022/05/28 12:16:31;;;;;;;4.00;1.52;;;;;23.50;96462.00;;;;8406996;28;21259;-69
2022/05/28 12:20:37;;;;;;;4.18;1.50;;;;;23.40;96447.00;;;;8413284;28;20696;-69
2022/05/28 12:24:45;;;;;;;3.40;1.55;;;;;24.10;96435.00;;;;8419917;28;20227;-70
2022/05/28 12:28:51;;;;;;;5.70;1.77;;;;;24.80;96427.00;;;;8415951;28;20721;-67
2022/05/28 12:32:54;;;;;;;2.15;1.27;;;;;25.30;96415.00;;;;8416380;28;22053;-67
2022/05/28 12:36:58;;;;;;;3.30;1.30;;;;;24.70;96414.00;;;;8418058;28;20329;-65
2022/05/28 12:41:02;;;;;;;3.60;1.25;;;;;23.30;96427.00;;;;8415380;28;20227;-67
2022/05/28 12:45:16;;;;;;;3.53;1.40;;;;;22.00;96409.00;;;;8413039;28;20982;-67
2022/05/28 12:49:29;;;;;;;16.50;2.42;;;;;21.70;96408.00;;;;8412653;28;20402;-67
2022/05/28 12:53:36;;;;;;;5.43;1.65;;;;;21.50;96399.00;;;;8423474;28;20632;-69
2022/05/28 12:57:40;;;;;;;5.35;1.40;;;;;21.20;96394.00;;;;8412575;28;20233;-68
2022/05/28 13:01:56;;;;;;;1.77;1.40;;;;;21.00;96397.00;;;;8416756;28;20219;-68
2022/05/28 13:06:07;;;;;;;2.65;1.23;;;;;20.80;96399.00;;;;8385442;28;20224;-68
2022/05/28 13:10:15;;;;;;;3.42;1.50;;;;;20.50;96386.00;;;;8384571;28;20254;-68
2022/05/28 13:14:57;;;;;;;3.20;1.40;;;;;20.60;96396.00;;;;8374281;28;20322;-71
2022/05/28 13:19:25;;;;;;;3.40;1.63;;;;;21.80;96392.00;;;;8375617;28;20236;-70
2022/05/28 13:23:41;;;;;;;3.90;1.40;;;;;22.40;96383.00;;;;8388672;28;20223;-70
2022/05/28 13:28:15;;;;;;;2.72;1.58;;;;;22.60;96388.00;;;;8388293;28;20223;-70
2022/05/28 13:32:23;;;;;;;1.38;1.30;;;;;23.30;96379.00;;;;8386641;28;20310;-68
2022/05/28 13:36:31;;;;;;;1.98;1.40;;;;;22.90;96382.00;;;;8386272;28;20232;-69
2022/05/28 13:40:37;;;;;;;2.42;1.50;;;;;22.90;96367.00;;;;8384986;28;20732;-68
2022/05/28 13:44:42;;;;;;;2.80;1.55;;;;;23.00;96356.00;;;;8384831;28;20224;-72
2022/05/28 13:48:48;;;;;;;2.63;1.42;;;;;23.30;96362.00;;;;8381776;28;20243;-69
2022/05/28 13:52:53;;;;;;;1.48;1.23;;;;;22.10;96365.00;;;;8380469;28;20652;-73
2022/05/28 13:56:58;;;;;;;1.85;1.30;;;;;22.20;96356.00;;;;8373674;28;20234;-70
2022/05/28 14:01:05;;;;;;;6.28;1.50;;;;;23.10;96338.00;;;;8377554;28;20298;-69
2022/05/28 14:05:09;;;;;;;2.22;1.20;;;;;23.50;96352.00;;;;8393010;28;20310;-69
2022/05/28 14:09:13;;;;;;;1.55;1.25;;;;;23.40;96342.00;;;;8405460;28;20233;-69
2022/05/28 14:13:23;;;;;;;3.15;1.60;;;;;22.40;96344.00;;;;8402396;28;20233;-69
2022/05/28 14:17:31;;;;;;;2.88;1.50;;;;;22.80;96353.00;;;;8413937;28;20231;-73
2022/05/28 14:21:36;;;;;;;5.75;1.58;;;;;23.60;96357.00;;;;8419970;28;20278;-71
2022/05/28 14:25:41;;;;;;;3.90;1.92;;;;;23.90;96346.00;;;;8413557;28;20226;-68
2022/05/28 14:29:47;;;;;;;1.40;1.27;;;;;23.90;96348.00;;;;8404991;28;20803;-70
2022/05/28 14:33:54;;;;;;;1.95;1.27;;;;;23.60;96339.00;;;;8406246;28;20603;-72
2022/05/28 14:38:01;;;;;;;5.40;1.58;;;;;23.50;96334.00;;;;8391757;28;20219;-73
2022/05/28 14:42:10;;;;;;;1.42;1.13;;;;;23.50;96346.00;;;;8418963;28;20257;-74
2022/05/28 14:46:25;;;;;;;1.23;1.13;;;;;23.10;96340.00;;;;8412058;28;20224;-70
2022/05/28 14:50:31;;;;;;;1.55;1.45;;;;;23.10;96336.00;;;;8418204;28;20233;-71
2022/05/28 14:54:37;;;;;;;2.97;1.25;;;;;23.20;96329.00;;;;8416286;28;20223;-77
2022/05/28 14:58:44;;;;;;;2.35;1.23;;;;;23.40;96322.00;;;;8417860;28;20223;-69
2022/05/28 15:02:48;;;;;;;3.20;1.48;;;;;22.80;96327.00;;;;8422837;28;20256;-74
2022/05/28 15:07:00;;;;;;;2.55;1.60;;;;;22.00;96325.00;;;;8414915;28;20231;-72
2022/05/28 15:11:04;;;;;;;2.78;1.88;;;;;21.80;96317.00;;;;8415045;28;20233;-76
2022/05/28 15:15:09;;;;;;;4.05;1.50;;;;;21.90;96309.00;;;;8420019;28;20313;-76
2022/05/28 15:19:13;;;;;;;1.30;1.20;;;;;22.20;96313.00;;;;8407293;28;20227;-67
2022/05/28 15:23:17;;;;;;;3.67;1.58;;;;;22.10;96308.00;;;;8407633;28;20809;-68
2022/05/28 15:27:22;;;;;;;1.77;1.40;;;;;22.20;96306.00;;;;8410982;28;20225;-70
2022/05/28 15:31:26;;;;;;;4.28;1.70;;;;;23.10;96289.00;;;;8403336;28;20670;-70
2022/05/28 15:39:50;;;;;;;1.60;1.50;;;;;22.50;96303.00;;;;8409908;28;20302;-69
2022/05/28 15:43:54;;;;;;;4.63;1.88;;;;;22.30;96293.00;;;;8407739;28;20258;-73
2022/05/28 15:48:00;;;;;;;3.65;1.50;;;;;22.70;96286.00;;;;8401076;28;20237;-73
2022/05/28 15:52:03;;;;;;;2.63;1.35;;;;;22.30;96285.00;;;;8411547;28;20227;-70
2022/05/28 15:56:11;;;;;;;5.88;1.48;;;;;21.90;96273.00;;;;8406833;28;20437;-67
2022/05/28 16:00:16;;;;;;;2.63;1.35;;;;;21.20;96273.00;;;;8411980;28;20314;-70
2022/05/28 16:04:27;;;;;;;3.50;1.75;;;;;20.40;96273.00;;;;8408955;28;20322;-69
2022/05/28 16:08:43;;;;;;;3.20;1.60;;;;;20.20;96277.00;;;;8407774;28;20781;-67
2022/05/28 16:12:46;;;;;;;2.58;1.75;;;;;20.70;96270.00;;;;8397549;28;20739;-69
2022/05/28 16:16:49;;;;;;;5.93;1.50;;;;;21.40;96264.00;;;;8419625;28;20225;-65
2022/05/28 16:20:54;;;;;;;3.50;1.65;;;;;22.10;96264.00;;;;8422789;28;20222;-67
2022/05/28 16:24:57;;;;;;;1.90;1.80;;;;;22.50;96268.00;;;;8422505;28;20231;-69
2022/05/28 16:29:03;;;;;;;2.38;1.50;;;;;23.10;96255.00;;;;8422976;28;20309;-68
2022/05/28 16:33:07;;;;;;;5.47;1.52;;;;;23.70;96256.00;;;;8426284;28;20754;-70
2022/05/28 16:37:11;;;;;;;1.52;1.40;;;;;24.20;96252.00;;;;8419562;28;20219;-69
2022/05/28 16:41:15;;;;;;;1.85;1.33;;;;;23.70;96264.00;;;;8423219;28;20704;-71
2022/05/28 16:45:19;;;;;;;2.22;1.33;;;;;22.90;96264.00;;;;8413485;28;20573;-74
2022/05/28 16:49:22;;;;;;;2.55;1.45;;;;;22.10;96269.00;;;;8416063;28;20318;-75
2022/05/28 16:53:27;;;;;;;2.95;1.52;;;;;21.50;96260.00;;;;8416091;28;20302;-69
2022/05/28 16:57:32;;;;;;;5.07;1.70;;;;;21.60;96261.00;;;;8433143;28;20215;-70
2022/05/28 17:01:35;;;;;;;2.35;1.60;;;;;22.30;96254.00;;;;8425786;28;20231;-69
2022/05/28 17:05:39;;;;;;;3.95;1.75;;;;;23.20;96252.00;;;;8423735;28;20849;-68
2022/05/28 17:09:43;;;;;;;2.65;1.48;;;;;23.70;96259.00;;;;8425373;28;20633;-69
2022/05/28 17:13:47;;;;;;;3.13;2.22;;;;;23.80;96259.00;;;;8421598;28;20413;-70
2022/05/28 17:17:50;;;;;;;7.05;1.60;;;;;23.60;96260.00;;;;8425922;28;20268;-70
2022/05/28 17:21:53;;;;;;;5.85;1.67;;;;;22.70;96262.00;;;;8428868;28;20233;-70
2022/05/28 17:25:59;;;;;;;2.03;1.80;;;;;21.50;96266.00;;;;8423374;28;20309;-69
2022/05/28 17:30:02;;;;;;;2.35;1.88;;;;;21.00;96263.00;;;;8425589;28;20307;-69
2022/05/28 17:34:09;;;;;;;4.88;1.75;;;;;20.50;96261.00;;;;8423953;28;20226;-70
2022/05/28 17:38:13;;;;;;;4.30;1.98;;;;;20.00;96262.00;;;;8433448;28;20229;-72
2022/05/28 17:42:18;;;;;;;2.17;1.55;;;;;20.00;96257.00;;;;8421327;28;20780;-70
2022/05/28 17:46:21;;;;;;;1.95;1.50;;;;;19.80;96254.00;;;;8409164;28;20246;-71
2022/05/28 17:50:26;;;;;;;3.70;1.60;;;;;19.60;96259.00;;;;8416838;28;20253;-72
2022/05/28 17:54:29;;;;;;;1.50;1.40;;;;;19.30;96255.00;;;;8416267;28;20682;-72
2022/05/28 17:58:34;;;;;;;3.90;1.85;;;;;18.90;96266.00;;;;8416215;28;20336;-68
2022/05/28 18:02:37;;;;;;;2.25;1.58;;;;;18.70;96259.00;;;;8422223;28;20557;-67
2022/05/28 18:06:40;;;;;;;2.80;1.77;;;;;18.50;96262.00;;;;8417609;28;20881;-69
2022/05/28 18:10:44;;;;;;;1.83;1.60;;;;;18.40;96263.00;;;;8418236;28;20239;-71
2022/05/28 18:14:48;;;;;;;1.83;1.50;;;;;18.30;96262.00;;;;8418875;28;20584;-69
2022/05/28 18:18:53;;;;;;;3.17;1.48;;;;;18.30;96261.00;;;;8412926;28;20249;-71
2022/05/28 18:22:57;;;;;;;5.13;1.95;;;;;18.30;96266.00;;;;8416368;28;20590;-68
2022/05/28 18:27:03;;;;;;;4.00;1.45;;;;;18.30;96263.00;;;;8418695;28;20226;-68
2022/05/28 18:31:10;;;;;;;2.30;1.48;;;;;18.20;96261.00;;;;8420368;28;20682;-67
2022/05/28 18:35:20;;;;;;;3.15;2.00;;;;;18.10;96266.00;;;;8421153;28;20250;-69
2022/05/28 18:39:30;;;;;;;2.60;1.50;;;;;17.90;96256.00;;;;8415212;28;20524;-69
2022/05/28 18:43:34;;;;;;;3.97;1.70;;;;;17.70;96254.00;;;;8422409;28;20324;-67
2022/05/28 18:47:39;;;;;;;2.80;1.73;;;;;17.60;96259.00;;;;8421801;28;20236;-66
2022/05/28 18:51:42;;;;;;;3.35;1.67;;;;;17.40;96262.00;;;;8421799;28;20304;-71
2022/05/28 18:55:45;;;;;;;1.92;1.83;;;;;17.20;96260.00;;;;8420287;28;20725;-68
2022/05/28 18:59:49;;;;;;;2.47;1.73;;;;;16.90;96255.00;;;;8421518;28;21004;-67
2022/05/28 19:03:53;;;;;;;2.20;1.40;;;;;16.50;96250.00;;;;8423650;28;20790;-67
2022/05/28 19:07:57;;;;;;;1.98;1.67;;;;;16.10;96248.00;;;;8422499;28;20301;-68
2022/05/28 19:12:03;;;;;;;2.92;1.80;;;;;15.60;96253.00;;;;8420096;28;20226;-66
2022/05/28 19:16:31;;;;;;;3.30;1.88;;;;;15.10;96248.00;;;;8406682;28;20257;-67
2022/05/28 19:20:38;;;;;;;2.30;1.85;;;;;14.70;96245.00;;;;8412026;28;20751;-69
2022/05/28 19:24:41;;;;;;;2.40;2.13;;;;;14.20;96245.00;;;;8410570;28;20235;-72
2022/05/28 19:28:45;;;;;;;5.15;2.67;;;;;13.80;96248.00;;;;8407909;28;20230;-71
2022/05/28 19:32:49;;;;;;;3.15;2.35;;;;;13.40;96252.00;;;;8391907;28;20237;-68
2022/05/28 19:36:54;;;;;;;3.17;2.40;;;;;13.10;96251.00;;;;8408435;28;20223;-68
2022/05/28 19:41:00;;;;;;;4.65;2.42;;;;;12.80;96252.00;;;;8410541;28;20665;-74
2022/05/28 19:45:07;;;;;;;5.60;2.50;;;;;12.50;96252.00;;;;8401240;28;20259;-69
2022/05/28 19:49:13;;;;;;;10.25;3.13;;;;;12.20;96263.00;;;;8409684;28;20263;-68
2022/05/28 19:53:18;;;;;;;3.17;2.55;;;;;12.00;96262.00;;;;8405273;28;20321;-68
2022/05/28 19:57:22;;;;;;;4.38;2.20;;;;;11.80;96252.00;;;;8410874;28;20317;-71
2022/05/28 20:01:30;;;;;;;2.42;2.20;;;;;11.60;96264.00;;;;8402061;28;20249;-70
2022/05/28 20:05:34;;;;;;;4.97;2.60;;;;;11.40;96257.00;;;;8409442;28;20239;-68
2022/05/28 20:09:39;;;;;;;3.05;2.10;;;;;11.20;96255.00;;;;8413786;28;20337;-70
2022/05/28 20:13:42;;;;;;;3.80;2.35;;;;;11.00;96245.00;;;;8418618;28;20231;-69
2022/05/28 20:17:45;;;;;;;4.63;2.27;;;;;10.90;96252.00;;;;8408034;28;20231;-71
2022/05/28 20:21:49;;;;;;;4.63;2.47;;;;;10.80;96248.00;;;;8411840;28;20231;-68
2022/05/28 20:25:53;;;;;;;5.20;2.30;;;;;10.60;96240.00;;;;8416005;28;20281;-69
2022/05/28 20:30:02;;;;;;;2.33;2.23;;;;;10.50;96246.00;;;;8413020;28;20220;-69
2022/05/28 20:34:07;;;;;;;3.03;2.40;;;;;10.30;96238.00;;;;8416157;28;20937;-72
2022/05/28 20:38:11;;;;;;;5.77;2.60;;;;;10.10;96227.00;;;;8411041;28;20335;-68
2022/05/28 20:42:15;;;;;;;3.67;2.30;;;;;10.00;96230.00;;;;8413837;28;20702;-69